createdAt,value
2019-01-12T00:03:02.505Z,0.8
2019-01-12T00:08:02.507Z,0.8
2019-01-12T00:13:02.509Z,0.8
2019-01-12T00:18:02.512Z,0.8
2019-01-12T00:23:02.515Z,0.9
2019-01-12T00:28:02.522Z,0.9
2019-01-12T00:33:02.533Z,0.9
2019-01-12T00:38:02.520Z,1
2019-01-12T00:43:02.663Z,1
2019-01-12T00:48:02.493Z,1
2019-01-12T00:53:02.858Z,1
2019-01-12T00:58:02.810Z,1
2019-01-12T01:03:02.533Z,1.1
2019-01-12T01:08:02.560Z,1.1
2019-01-12T01:13:02.514Z,1.1
2019-01-12T01:18:02.542Z,1.1
2019-01-12T01:23:02.556Z,1.1
2019-01-12T01:28:02.513Z,1.2
2019-01-12T01:33:02.544Z,1.2
2019-01-12T01:38:02.579Z,1.2
2019-01-12T01:43:02.699Z,1.2
2019-01-12T01:48:02.568Z,1.2
2019-01-12T01:53:02.569Z,1.3
2019-01-12T01:58:02.569Z,1.3
2019-01-12T02:03:02.579Z,1.3
2019-01-12T02:08:02.557Z,1.3
2019-01-12T02:13:02.593Z,1.3
2019-01-12T02:18:02.576Z,1.3
2019-01-12T02:23:02.582Z,1.4
2019-01-12T02:28:02.585Z,1.4
2019-01-12T02:33:02.587Z,1.4
2019-01-12T02:38:02.592Z,1.4
2019-01-12T02:43:02.594Z,1.4
2019-01-12T02:48:02.582Z,1.4
2019-01-12T02:53:02.600Z,1.4
2019-01-12T02:58:02.603Z,1.5
2019-01-12T03:03:02.595Z,1.5
2019-01-12T03:08:02.588Z,1.5
2019-01-12T03:13:02.610Z,1.5
2019-01-12T03:18:02.616Z,1.6
2019-01-12T03:23:02.610Z,1.6
2019-01-12T03:28:02.612Z,1.8
2019-01-12T03:33:02.629Z,1.9
2019-01-12T03:38:02.623Z,1.5
2019-01-12T03:43:02.609Z,1.5
2019-01-12T03:48:02.628Z,1.6
2019-01-12T03:53:02.628Z,1.6
2019-01-12T03:58:02.626Z,1.6
2019-01-12T04:03:02.618Z,1.6
2019-01-12T04:08:02.652Z,1.6
2019-01-12T04:13:02.638Z,1.7
2019-01-12T04:18:02.630Z,1.7
2019-01-12T04:23:02.649Z,1.7
2019-01-12T04:28:02.645Z,1.7
2019-01-12T04:33:02.648Z,1.7
2019-01-12T04:38:02.646Z,1.8
2019-01-12T04:43:02.641Z,1.8
2019-01-12T04:48:02.644Z,1.8
2019-01-12T04:53:02.642Z,1.8
2019-01-12T04:58:02.653Z,1.8
2019-01-12T05:03:02.666Z,1.8
2019-01-12T05:08:02.650Z,1.9
2019-01-12T05:13:02.671Z,1.9
2019-01-12T05:18:02.667Z,1.8
2019-01-12T05:23:02.664Z,1.9
2019-01-12T05:28:02.683Z,1.9
2019-01-12T05:33:02.867Z,1.9
2019-01-12T05:38:02.681Z,2
2019-01-12T05:43:02.687Z,2
2019-01-12T05:48:02.685Z,2
2019-01-12T05:53:02.699Z,2
2019-01-12T05:58:02.670Z,2.1
2019-01-12T06:03:02.696Z,2.1
2019-01-12T06:08:02.697Z,2.1
2019-01-12T06:13:02.696Z,2.1
2019-01-12T06:18:02.690Z,2.2
2019-01-12T06:23:02.708Z,2.2
2019-01-12T06:28:02.703Z,2.1
2019-01-12T06:33:02.874Z,2.1
2019-01-12T06:38:02.713Z,2.1
2019-01-12T06:43:02.711Z,2.1
2019-01-12T06:48:02.711Z,2.1
2019-01-12T06:53:02.734Z,2.1
2019-01-12T06:58:02.709Z,2.1
2019-01-12T07:03:02.733Z,2.1
2019-01-12T07:08:02.730Z,2.1
2019-01-12T07:13:02.734Z,2.2
2019-01-12T07:18:08.592Z,2.2
2019-01-12T07:23:02.788Z,2.3
2019-01-12T07:28:02.728Z,2.2
2019-01-12T07:33:02.746Z,2.2
2019-01-12T07:38:02.705Z,2.3
2019-01-12T07:43:02.759Z,2.4
2019-01-12T07:48:02.743Z,2.4
2019-01-12T07:53:02.756Z,2.4
2019-01-12T07:58:02.775Z,2.5
2019-01-12T08:03:02.827Z,2.6
2019-01-12T08:08:02.839Z,2.6
2019-01-12T08:13:02.839Z,2.6
2019-01-12T08:18:02.851Z,2.7
2019-01-12T08:23:02.847Z,2.7
2019-01-12T08:28:05.702Z,2.7
2019-01-12T08:33:02.874Z,2.7
2019-01-12T08:38:02.859Z,2.8
2019-01-12T08:43:02.841Z,2.8
2019-01-12T08:48:02.841Z,2.8
2019-01-12T08:53:02.847Z,2.8
2019-01-12T08:58:02.908Z,2.9
2019-01-12T09:03:02.856Z,2.9
2019-01-12T09:08:02.869Z,2.9
2019-01-12T09:13:02.891Z,2.9
2019-01-12T09:18:02.878Z,2.9
2019-01-12T09:23:02.916Z,3
2019-01-12T09:28:02.899Z,3
2019-01-12T09:33:02.876Z,3
2019-01-12T09:38:02.896Z,3.1
2019-01-12T09:43:02.891Z,3.2
2019-01-12T09:48:02.902Z,3.2
2019-01-12T09:53:02.896Z,3.2
2019-01-12T09:58:02.882Z,3.2
2019-01-12T10:03:02.987Z,3.2
2019-01-12T10:08:02.895Z,3.1
2019-01-12T10:13:02.902Z,3.2
2019-01-12T10:18:02.903Z,3.1
2019-01-12T10:23:02.968Z,3.1
2019-01-12T10:28:03.088Z,3.1
2019-01-12T10:33:02.941Z,3.1
2019-01-12T10:38:02.916Z,3.1
2019-01-12T10:43:02.937Z,3.1
2019-01-12T10:48:03.307Z,3.1
2019-01-12T10:53:03.038Z,3.1
2019-01-12T10:58:03.162Z,3.1
2019-01-12T11:03:02.978Z,3.1
2019-01-12T11:08:02.942Z,3.1
2019-01-12T11:13:02.937Z,3.1
2019-01-12T11:18:02.921Z,3.1
2019-01-12T11:23:03.123Z,3.1
2019-01-12T11:28:02.956Z,3
2019-01-12T11:33:02.929Z,3
2019-01-12T11:38:02.965Z,3
2019-01-12T11:43:02.956Z,3
2019-01-12T11:48:02.993Z,3
2019-01-12T11:53:02.970Z,3
2019-01-12T11:58:02.942Z,3
2019-01-12T12:03:02.966Z,3.1
2019-01-12T12:08:03.049Z,3.1
2019-01-12T12:13:03.000Z,3.1
2019-01-12T12:18:02.967Z,3.2
2019-01-12T12:23:02.976Z,3.1
2019-01-12T12:28:03.001Z,3.1
2019-01-12T12:33:03.129Z,3.2
2019-01-12T12:38:02.990Z,3.2
2019-01-12T12:43:03.024Z,3.2
2019-01-12T12:48:03.051Z,3.3
2019-01-12T12:53:02.992Z,3.4
2019-01-12T12:58:03.275Z,3.4
2019-01-12T13:03:03.017Z,3.4
2019-01-12T13:08:03.854Z,3.5
2019-01-12T13:13:03.007Z,3.5
2019-01-12T13:18:03.259Z,3.6
2019-01-12T13:23:03.003Z,3.6
2019-01-12T13:28:03.027Z,3.6
2019-01-12T13:33:03.031Z,3.7
2019-01-12T13:38:03.370Z,3.7
2019-01-12T13:43:03.051Z,3.7
2019-01-12T13:48:03.141Z,3.8
2019-01-12T13:53:03.137Z,3.7
2019-01-12T13:58:03.556Z,3.8
2019-01-12T14:03:03.379Z,3.7
2019-01-12T14:08:03.041Z,3.7
2019-01-12T14:13:03.027Z,3.7
2019-01-12T14:18:03.041Z,3.6
2019-01-12T14:23:03.042Z,3.6
2019-01-12T14:28:03.031Z,3.6
2019-01-12T14:33:03.162Z,3.6
2019-01-12T14:38:03.074Z,3.6
2019-01-12T14:43:03.063Z,3.6
2019-01-12T14:48:06.051Z,3.5
2019-01-12T14:53:03.051Z,3.5
2019-01-12T14:58:03.324Z,3.5
2019-01-12T15:03:03.068Z,3.5
2019-01-12T15:08:03.071Z,3.4
2019-01-12T15:13:03.122Z,3.4
2019-01-12T15:18:03.089Z,3.4
2019-01-12T15:23:03.050Z,3.4
2019-01-12T15:28:08.931Z,3.4
2019-01-12T15:33:03.044Z,3.4
2019-01-12T15:38:03.203Z,3.4
2019-01-12T15:43:03.072Z,3.4
2019-01-12T15:48:03.069Z,3.4
2019-01-12T15:53:03.080Z,3.4
2019-01-12T15:58:03.096Z,3.4
2019-01-12T16:03:03.162Z,3.4
2019-01-12T16:08:03.052Z,3.4
2019-01-12T16:13:03.181Z,3.4
2019-01-12T16:18:03.055Z,3.4
2019-01-12T16:23:03.117Z,3.5
2019-01-12T16:28:03.068Z,3.4
2019-01-12T16:33:03.099Z,3.4
2019-01-12T16:38:03.234Z,3.4
2019-01-12T16:43:03.106Z,3.4
2019-01-12T16:48:03.220Z,3.4
2019-01-12T16:53:03.124Z,3.5
2019-01-12T16:58:03.074Z,3.4
2019-01-12T17:03:03.127Z,3.5
2019-01-12T17:08:03.296Z,3.4
2019-01-12T17:13:03.108Z,3.4
2019-01-12T17:18:03.143Z,3.4
2019-01-12T17:23:03.158Z,3.4
2019-01-12T17:28:03.141Z,3.5
2019-01-12T17:33:03.141Z,3.5
2019-01-12T17:38:03.182Z,3.5
2019-01-12T17:43:03.260Z,3.5
2019-01-12T17:48:03.171Z,3.5
2019-01-12T17:53:03.171Z,3.5
2019-01-12T17:58:03.465Z,3.5
2019-01-12T18:03:03.181Z,3.5
2019-01-12T18:08:03.203Z,3.5
2019-01-12T18:13:03.582Z,3.6
2019-01-12T18:18:03.152Z,3.6
2019-01-12T18:23:03.178Z,3.7
2019-01-12T18:28:03.157Z,3.7
2019-01-12T18:33:03.168Z,3.7
2019-01-12T18:38:03.171Z,3.7
2019-01-12T18:43:03.192Z,3.7
2019-01-12T18:48:03.171Z,3.7
2019-01-12T18:53:03.187Z,3.7
2019-01-12T18:58:03.256Z,3.7
2019-01-12T19:03:03.202Z,3.8
2019-01-12T19:08:03.198Z,3.8
2019-01-12T19:13:03.172Z,3.8
2019-01-12T19:18:03.183Z,3.8
2019-01-12T19:23:03.189Z,3.8
2019-01-12T19:28:03.190Z,3.8
2019-01-12T19:33:03.182Z,3.8
2019-01-12T19:38:03.294Z,3.7
2019-01-12T19:43:03.208Z,3.7
2019-01-12T19:48:03.236Z,3.6
2019-01-12T19:53:03.206Z,3.6
2019-01-12T19:58:03.203Z,3.6
2019-01-12T20:03:03.208Z,3.6
2019-01-12T20:08:03.304Z,3.5
2019-01-12T20:13:03.256Z,3.5
2019-01-12T20:18:03.244Z,3.4
2019-01-12T20:23:03.239Z,3.4
2019-01-12T20:28:03.194Z,3.4
2019-01-12T20:33:03.242Z,3.4
2019-01-12T20:38:03.223Z,3.4
2019-01-12T20:43:03.250Z,3.4
2019-01-12T20:48:08.693Z,3.3
2019-01-12T20:53:03.277Z,3.3
2019-01-12T20:58:03.214Z,3.2
2019-01-12T21:03:03.269Z,3.3
2019-01-12T21:08:03.273Z,3.2
2019-01-12T21:13:03.297Z,3.1
2019-01-12T21:18:03.283Z,3.1
2019-01-12T21:23:03.293Z,3
2019-01-12T21:28:03.260Z,3
2019-01-12T21:33:03.271Z,3
2019-01-12T21:38:03.290Z,3
2019-01-12T21:43:03.463Z,3
2019-01-12T21:48:03.283Z,3
2019-01-12T21:53:03.281Z,3
2019-01-12T21:58:03.276Z,3
2019-01-12T22:03:03.515Z,3
2019-01-12T22:08:03.289Z,2.9
2019-01-12T22:13:03.306Z,2.9
2019-01-12T22:18:03.296Z,2.9
2019-01-12T22:23:03.290Z,2.9
2019-01-12T22:28:03.308Z,2.9
2019-01-12T22:33:03.288Z,2.9
2019-01-12T22:38:03.329Z,2.9
2019-01-12T22:43:03.298Z,2.9
2019-01-12T22:48:03.307Z,3
2019-01-12T22:53:03.354Z,3
2019-01-12T22:58:03.371Z,3
2019-01-12T23:03:03.319Z,2.9
2019-01-12T23:08:03.330Z,3
2019-01-12T23:13:03.331Z,2.9
2019-01-12T23:18:03.315Z,2.9
2019-01-12T23:23:03.326Z,2.9
2019-01-12T23:28:03.335Z,2.8
2019-01-12T23:33:03.327Z,2.9
2019-01-12T23:38:03.321Z,2.8
2019-01-12T23:43:03.338Z,2.9
2019-01-12T23:48:03.342Z,2.8
2019-01-12T23:53:03.346Z,2.8
2019-01-12T23:58:03.339Z,2.8
